sensor_id;sensor_type;location;lat;lon;timestamp;P1;durP1;ratioP1;P2;durP2;ratioP2
47129;SDS011;64709;48.096;11.524;2022-11-20T00:00:53;2.55;;;2.00;;
47129;SDS011;64709;48.096;11.524;2022-11-20T00:03:18;3.65;;;2.25;;
47129;SDS011;64709;48.096;11.524;2022-11-20T00:05:44;2.63;;;1.98;;
47129;SDS011;64709;48.096;11.524;2022-11-20T00:08:09;3.00;;;1.98;;
47129;SDS011;64709;48.096;11.524;2022-11-20T00:10:38;3.60;;;2.28;;
47129;SDS011;64709;48.096;11.524;2022-11-20T00:13:04;2.55;;;1.80;;
47129;SDS011;64709;48.096;11.524;2022-11-20T00:15:30;2.75;;;2.00;;
47129;SDS011;64709;48.096;11.524;2022-11-20T00:17:55;2.78;;;2.00;;
47129;SDS011;64709;48.096;11.524;2022-11-20T00:20:21;2.92;;;1.83;;
47129;SDS011;64709;48.096;11.524;2022-11-20T00:22:46;4.13;;;2.20;;
47129;SDS011;64709;48.096;11.524;2022-11-20T00:25:12;3.47;;;1.90;;
47129;SDS011;64709;48.096;11.524;2022-11-20T00:27:37;4.03;;;2.10;;
47129;SDS011;64709;48.096;11.524;2022-11-20T00:30:03;4.88;;;2.30;;
47129;SDS011;64709;48.096;11.524;2022-11-20T00:32:29;4.05;;;2.05;;
47129;SDS011;64709;48.096;11.524;2022-11-20T00:34:55;5.20;;;2.85;;
47129;SDS011;64709;48.096;11.524;2022-11-20T00:37:20;3.40;;;2.13;;
47129;SDS011;64709;48.096;11.524;2022-11-20T00:39:45;3.63;;;2.25;;
47129;SDS011;64709;48.096;11.524;2022-11-20T00:42:11;3.45;;;1.90;;
47129;SDS011;64709;48.096;11.524;2022-11-20T00:44:36;3.47;;;1.92;;
47129;SDS011;64709;48.096;11.524;2022-11-20T00:47:01;2.65;;;1.92;;
47129;SDS011;64709;48.096;11.524;2022-11-20T00:49:27;3.00;;;2.00;;
47129;SDS011;64709;48.096;11.524;2022-11-20T00:51:52;4.00;;;2.28;;
47129;SDS011;64709;48.096;11.524;2022-11-20T00:54:17;2.60;;;1.70;;
47129;SDS011;64709;48.096;11.524;2022-11-20T00:56:42;3.65;;;1.92;;
47129;SDS011;64709;48.096;11.524;2022-11-20T00:59:08;2.38;;;1.75;;
47129;SDS011;64709;48.096;11.524;2022-11-20T01:01:34;2.25;;;1.70;;
47129;SDS011;64709;48.096;11.524;2022-11-20T01:04:01;2.97;;;2.22;;
47129;SDS011;64709;48.096;11.524;2022-11-20T01:06:27;4.03;;;2.38;;
47129;SDS011;64709;48.096;11.524;2022-11-20T01:08:55;3.30;;;2.22;;
47129;SDS011;64709;48.096;11.524;2022-11-20T01:11:24;2.85;;;2.20;;
47129;SDS011;64709;48.096;11.524;2022-11-20T01:13:51;3.83;;;2.13;;
47129;SDS011;64709;48.096;11.524;2022-11-20T01:16:19;3.17;;;2.30;;
47129;SDS011;64709;48.096;11.524;2022-11-20T01:18:49;4.07;;;1.90;;
47129;SDS011;64709;48.096;11.524;2022-11-20T01:21:19;3.00;;;2.40;;
47129;SDS011;64709;48.096;11.524;2022-11-20T01:23:46;2.70;;;2.13;;
47129;SDS011;64709;48.096;11.524;2022-11-20T01:26:13;3.17;;;2.25;;
47129;SDS011;64709;48.096;11.524;2022-11-20T01:28:41;2.45;;;2.00;;
47129;SDS011;64709;48.096;11.524;2022-11-20T01:31:11;2.58;;;2.38;;
47129;SDS011;64709;48.096;11.524;2022-11-20T01:33:38;3.40;;;2.15;;
47129;SDS011;64709;48.096;11.524;2022-11-20T01:36:05;3.47;;;2.25;;
47129;SDS011;64709;48.096;11.524;2022-11-20T01:38:31;3.47;;;1.98;;
47129;SDS011;64709;48.096;11.524;2022-11-20T01:40:57;2.83;;;2.53;;
47129;SDS011;64709;48.096;11.524;2022-11-20T01:43:22;2.08;;;1.70;;
47129;SDS011;64709;48.096;11.524;2022-11-20T01:48:48;3.13;;;1.65;;
47129;SDS011;64709;48.096;11.524;2022-11-20T01:53:47;3.20;;;1.95;;
47129;SDS011;64709;48.096;11.524;2022-11-20T01:56:15;3.75;;;2.05;;
47129;SDS011;64709;48.096;11.524;2022-11-20T01:58:42;2.55;;;1.70;;
47129;SDS011;64709;48.096;11.524;2022-11-20T02:01:12;3.70;;;2.13;;
47129;SDS011;64709;48.096;11.524;2022-11-20T02:03:38;3.08;;;1.85;;
47129;SDS011;64709;48.096;11.524;2022-11-20T02:06:07;2.75;;;1.77;;
47129;SDS011;64709;48.096;11.524;2022-11-20T02:08:39;3.17;;;2.08;;
47129;SDS011;64709;48.096;11.524;2022-11-20T02:11:04;4.57;;;3.05;;
47129;SDS011;64709;48.096;11.524;2022-11-20T02:13:30;2.63;;;1.60;;
47129;SDS011;64709;48.096;11.524;2022-11-20T02:18:55;2.88;;;1.88;;
47129;SDS011;64709;48.096;11.524;2022-11-20T02:21:27;3.35;;;2.10;;
47129;SDS011;64709;48.096;11.524;2022-11-20T02:27:19;2.33;;;1.80;;
47129;SDS011;64709;48.096;11.524;2022-11-20T02:29:26;3.42;;;2.13;;
47129;SDS011;64709;48.096;11.524;2022-11-20T02:31:57;2.80;;;1.83;;
47129;SDS011;64709;48.096;11.524;2022-11-20T02:34:25;3.10;;;2.13;;
47129;SDS011;64709;48.096;11.524;2022-11-20T02:36:50;3.13;;;2.00;;
47129;SDS011;64709;48.096;11.524;2022-11-20T02:39:17;3.55;;;2.00;;
47129;SDS011;64709;48.096;11.524;2022-11-20T02:41:45;3.00;;;2.33;;
47129;SDS011;64709;48.096;11.524;2022-11-20T02:44:10;3.60;;;2.20;;
47129;SDS011;64709;48.096;11.524;2022-11-20T02:46:35;3.65;;;2.55;;
47129;SDS011;64709;48.096;11.524;2022-11-20T02:49:02;2.95;;;2.60;;
47129;SDS011;64709;48.096;11.524;2022-11-20T02:51:27;2.40;;;2.08;;
47129;SDS011;64709;48.096;11.524;2022-11-20T02:53:53;5.13;;;2.25;;
47129;SDS011;64709;48.096;11.524;2022-11-20T02:56:18;3.20;;;2.15;;
47129;SDS011;64709;48.096;11.524;2022-11-20T02:58:43;3.85;;;2.30;;
47129;SDS011;64709;48.096;11.524;2022-11-20T03:01:09;3.67;;;2.10;;
47129;SDS011;64709;48.096;11.524;2022-11-20T03:03:34;3.20;;;2.20;;
47129;SDS011;64709;48.096;11.524;2022-11-20T03:05:59;3.47;;;2.15;;
47129;SDS011;64709;48.096;11.524;2022-11-20T03:08:25;3.30;;;2.22;;
47129;SDS011;64709;48.096;11.524;2022-11-20T03:10:51;2.67;;;1.90;;
47129;SDS011;64709;48.096;11.524;2022-11-20T03:13:16;2.08;;;1.88;;
47129;SDS011;64709;48.096;11.524;2022-11-20T03:15:41;2.63;;;1.85;;
47129;SDS011;64709;48.096;11.524;2022-11-20T03:18:07;3.75;;;2.22;;
47129;SDS011;64709;48.096;11.524;2022-11-20T03:20:32;3.60;;;2.00;;
47129;SDS011;64709;48.096;11.524;2022-11-20T03:22:58;3.80;;;2.58;;
47129;SDS011;64709;48.096;11.524;2022-11-20T03:25:24;2.97;;;2.10;;
47129;SDS011;64709;48.096;11.524;2022-11-20T03:27:49;3.53;;;2.72;;
47129;SDS011;64709;48.096;11.524;2022-11-20T03:30:15;2.40;;;2.05;;
47129;SDS011;64709;48.096;11.524;2022-11-20T03:32:40;3.45;;;2.25;;
47129;SDS011;64709;48.096;11.524;2022-11-20T03:35:06;3.72;;;2.38;;
47129;SDS011;64709;48.096;11.524;2022-11-20T03:37:32;3.08;;;2.42;;
47129;SDS011;64709;48.096;11.524;2022-11-20T03:39:57;2.90;;;2.00;;
47129;SDS011;64709;48.096;11.524;2022-11-20T03:42:22;4.57;;;2.95;;
47129;SDS011;64709;48.096;11.524;2022-11-20T03:45:06;3.72;;;2.58;;
47129;SDS011;64709;48.096;11.524;2022-11-20T03:47:32;3.20;;;2.20;;
47129;SDS011;64709;48.096;11.524;2022-11-20T03:49:57;3.83;;;2.83;;
47129;SDS011;64709;48.096;11.524;2022-11-20T03:52:23;3.15;;;2.30;;
47129;SDS011;64709;48.096;11.524;2022-11-20T03:54:48;4.78;;;2.40;;
47129;SDS011;64709;48.096;11.524;2022-11-20T03:57:13;3.03;;;2.25;;
47129;SDS011;64709;48.096;11.524;2022-11-20T03:59:39;4.78;;;2.47;;
47129;SDS011;64709;48.096;11.524;2022-11-20T04:02:04;3.90;;;2.65;;
47129;SDS011;64709;48.096;11.524;2022-11-20T04:04:29;2.95;;;2.28;;
47129;SDS011;64709;48.096;11.524;2022-11-20T04:06:54;3.15;;;2.28;;
47129;SDS011;64709;48.096;11.524;2022-11-20T04:09:20;2.90;;;2.08;;
47129;SDS011;64709;48.096;11.524;2022-11-20T04:11:45;3.08;;;2.20;;
47129;SDS011;64709;48.096;11.524;2022-11-20T04:14:14;4.20;;;2.47;;
47129;SDS011;64709;48.096;11.524;2022-11-20T04:16:40;4.30;;;2.40;;
47129;SDS011;64709;48.096;11.524;2022-11-20T04:19:08;5.70;;;2.90;;
47129;SDS011;64709;48.096;11.524;2022-11-20T04:21:35;5.13;;;2.30;;
47129;SDS011;64709;48.096;11.524;2022-11-20T04:24:01;3.55;;;1.85;;
47129;SDS011;64709;48.096;11.524;2022-11-20T04:26:27;4.72;;;2.15;;
47129;SDS011;64709;48.096;11.524;2022-11-20T04:28:53;2.90;;;1.75;;
47129;SDS011;64709;48.096;11.524;2022-11-20T04:31:23;3.47;;;2.45;;
47129;SDS011;64709;48.096;11.524;2022-11-20T04:33:50;3.22;;;2.58;;
47129;SDS011;64709;48.096;11.524;2022-11-20T04:36:20;6.72;;;4.05;;
47129;SDS011;64709;48.096;11.524;2022-11-20T04:38:53;8.18;;;5.45;;
47129;SDS011;64709;48.096;11.524;2022-11-20T04:41:20;8.97;;;5.23;;
47129;SDS011;64709;48.096;11.524;2022-11-20T04:43:50;3.90;;;2.70;;
47129;SDS011;64709;48.096;11.524;2022-11-20T04:46:17;3.30;;;2.45;;
47129;SDS011;64709;48.096;11.524;2022-11-20T04:48:44;5.88;;;2.83;;
47129;SDS011;64709;48.096;11.524;2022-11-20T04:51:09;3.55;;;2.28;;
47129;SDS011;64709;48.096;11.524;2022-11-20T04:53:35;3.45;;;2.65;;
47129;SDS011;64709;48.096;11.524;2022-11-20T04:56:01;5.75;;;3.50;;
47129;SDS011;64709;48.096;11.524;2022-11-20T04:58:28;8.95;;;6.05;;
47129;SDS011;64709;48.096;11.524;2022-11-20T05:00:53;7.28;;;4.25;;
47129;SDS011;64709;48.096;11.524;2022-11-20T05:03:18;4.57;;;3.20;;
47129;SDS011;64709;48.096;11.524;2022-11-20T05:05:44;4.75;;;2.50;;
47129;SDS011;64709;48.096;11.524;2022-11-20T05:08:09;3.67;;;2.70;;
47129;SDS011;64709;48.096;11.524;2022-11-20T05:10:34;4.25;;;2.92;;
47129;SDS011;64709;48.096;11.524;2022-11-20T05:13:00;8.63;;;4.82;;
47129;SDS011;64709;48.096;11.524;2022-11-20T05:15:25;5.85;;;3.50;;
47129;SDS011;64709;48.096;11.524;2022-11-20T05:17:51;5.60;;;3.80;;
47129;SDS011;64709;48.096;11.524;2022-11-20T05:20:17;5.20;;;3.22;;
47129;SDS011;64709;48.096;11.524;2022-11-20T05:22:43;6.57;;;3.97;;
47129;SDS011;64709;48.096;11.524;2022-11-20T05:25:10;7.95;;;4.13;;
47129;SDS011;64709;48.096;11.524;2022-11-20T05:27:36;8.55;;;5.28;;
47129;SDS011;64709;48.096;11.524;2022-11-20T05:30:02;6.30;;;3.85;;
47129;SDS011;64709;48.096;11.524;2022-11-20T05:32:28;8.85;;;5.57;;
47129;SDS011;64709;48.096;11.524;2022-11-20T05:34:54;5.75;;;3.90;;
47129;SDS011;64709;48.096;11.524;2022-11-20T05:37:19;5.57;;;2.95;;
47129;SDS011;64709;48.096;11.524;2022-11-20T05:39:44;4.07;;;2.55;;
47129;SDS011;64709;48.096;11.524;2022-11-20T05:42:09;3.47;;;2.78;;
47129;SDS011;64709;48.096;11.524;2022-11-20T05:44:53;3.15;;;2.53;;
47129;SDS011;64709;48.096;11.524;2022-11-20T05:47:18;3.42;;;2.45;;
47129;SDS011;64709;48.096;11.524;2022-11-20T05:49:44;3.65;;;2.45;;
47129;SDS011;64709;48.096;11.524;2022-11-20T05:52:09;4.20;;;2.53;;
47129;SDS011;64709;48.096;11.524;2022-11-20T05:54:35;3.13;;;2.13;;
47129;SDS011;64709;48.096;11.524;2022-11-20T05:57:00;2.55;;;2.10;;
47129;SDS011;64709;48.096;11.524;2022-11-20T05:59:25;5.38;;;3.40;;
47129;SDS011;64709;48.096;11.524;2022-11-20T06:01:50;7.43;;;3.92;;
47129;SDS011;64709;48.096;11.524;2022-11-20T06:04:16;4.47;;;3.25;;
47129;SDS011;64709;48.096;11.524;2022-11-20T06:06:41;3.78;;;2.20;;
47129;SDS011;64709;48.096;11.524;2022-11-20T06:09:06;4.68;;;2.60;;
47129;SDS011;64709;48.096;11.524;2022-11-20T06:11:32;6.53;;;3.22;;
47129;SDS011;64709;48.096;11.524;2022-11-20T06:13:57;4.25;;;2.58;;
47129;SDS011;64709;48.096;11.524;2022-11-20T06:16:22;9.30;;;5.22;;
47129;SDS011;64709;48.096;11.524;2022-11-20T06:18:48;9.05;;;5.10;;
47129;SDS011;64709;48.096;11.524;2022-11-20T06:21:17;5.55;;;3.03;;
47129;SDS011;64709;48.096;11.524;2022-11-20T06:23:44;9.15;;;5.70;;
47129;SDS011;64709;48.096;11.524;2022-11-20T06:26:11;5.82;;;3.47;;
47129;SDS011;64709;48.096;11.524;2022-11-20T06:28:41;2.80;;;2.00;;
47129;SDS011;64709;48.096;11.524;2022-11-20T06:31:07;4.18;;;2.55;;
47129;SDS011;64709;48.096;11.524;2022-11-20T06:33:34;9.23;;;5.32;;
47129;SDS011;64709;48.096;11.524;2022-11-20T06:36:00;6.47;;;3.45;;
47129;SDS011;64709;48.096;11.524;2022-11-20T06:38:26;3.25;;;2.40;;
47129;SDS011;64709;48.096;11.524;2022-11-20T06:40:52;3.58;;;1.83;;
47129;SDS011;64709;48.096;11.524;2022-11-20T06:43:18;2.15;;;1.60;;
47129;SDS011;64709;48.096;11.524;2022-11-20T06:45:44;2.25;;;1.63;;
47129;SDS011;64709;48.096;11.524;2022-11-20T06:48:09;2.33;;;1.63;;
47129;SDS011;64709;48.096;11.524;2022-11-20T06:50:38;2.60;;;1.70;;
47129;SDS011;64709;48.096;11.524;2022-11-20T06:53:04;4.85;;;2.50;;
47129;SDS011;64709;48.096;11.524;2022-11-20T06:55:30;5.25;;;3.22;;
47129;SDS011;64709;48.096;11.524;2022-11-20T06:57:56;3.95;;;2.30;;
47129;SDS011;64709;48.096;11.524;2022-11-20T07:00:22;2.00;;;1.42;;
47129;SDS011;64709;48.096;11.524;2022-11-20T07:02:47;4.65;;;1.48;;
47129;SDS011;64709;48.096;11.524;2022-11-20T07:05:13;3.08;;;1.60;;
47129;SDS011;64709;48.096;11.524;2022-11-20T07:07:38;3.17;;;1.90;;
47129;SDS011;64709;48.096;11.524;2022-11-20T07:10:03;3.08;;;1.70;;
47129;SDS011;64709;48.096;11.524;2022-11-20T07:12:30;2.78;;;2.10;;
47129;SDS011;64709;48.096;11.524;2022-11-20T07:14:55;3.15;;;2.10;;
47129;SDS011;64709;48.096;11.524;2022-11-20T07:17:21;4.03;;;2.40;;
47129;SDS011;64709;48.096;11.524;2022-11-20T07:19:46;4.88;;;2.72;;
47129;SDS011;64709;48.096;11.524;2022-11-20T07:22:11;3.97;;;2.33;;
47129;SDS011;64709;48.096;11.524;2022-11-20T07:24:38;4.10;;;2.53;;
47129;SDS011;64709;48.096;11.524;2022-11-20T07:27:03;3.33;;;2.47;;
47129;SDS011;64709;48.096;11.524;2022-11-20T07:29:29;4.13;;;2.47;;
47129;SDS011;64709;48.096;11.524;2022-11-20T07:31:54;3.55;;;2.65;;
47129;SDS011;64709;48.096;11.524;2022-11-20T07:34:21;3.83;;;2.67;;
47129;SDS011;64709;48.096;11.524;2022-11-20T07:36:46;3.80;;;2.58;;
47129;SDS011;64709;48.096;11.524;2022-11-20T07:39:11;4.15;;;2.70;;
47129;SDS011;64709;48.096;11.524;2022-11-20T07:41:37;4.10;;;2.42;;
47129;SDS011;64709;48.096;11.524;2022-11-20T07:44:02;5.32;;;3.00;;
47129;SDS011;64709;48.096;11.524;2022-11-20T07:46:28;4.63;;;2.70;;
47129;SDS011;64709;48.096;11.524;2022-11-20T07:48:53;3.33;;;2.22;;
47129;SDS011;64709;48.096;11.524;2022-11-20T07:51:18;3.42;;;2.20;;
47129;SDS011;64709;48.096;11.524;2022-11-20T07:53:44;3.00;;;1.83;;
47129;SDS011;64709;48.096;11.524;2022-11-20T07:56:09;3.15;;;1.98;;
47129;SDS011;64709;48.096;11.524;2022-11-20T07:58:34;3.33;;;2.53;;
47129;SDS011;64709;48.096;11.524;2022-11-20T08:01:04;3.55;;;2.20;;
47129;SDS011;64709;48.096;11.524;2022-11-20T08:03:30;2.70;;;2.03;;
47129;SDS011;64709;48.096;11.524;2022-11-20T08:05:58;4.80;;;2.53;;
47129;SDS011;64709;48.096;11.524;2022-11-20T08:08:27;3.05;;;2.25;;
47129;SDS011;64709;48.096;11.524;2022-11-20T08:10:53;3.95;;;2.10;;
47129;SDS011;64709;48.096;11.524;2022-11-20T08:13:38;3.17;;;2.47;;
47129;SDS011;64709;48.096;11.524;2022-11-20T08:16:22;3.00;;;2.00;;
47129;SDS011;64709;48.096;11.524;2022-11-20T08:18:47;3.50;;;2.55;;
47129;SDS011;64709;48.096;11.524;2022-11-20T08:21:13;2.70;;;2.28;;
47129;SDS011;64709;48.096;11.524;2022-11-20T08:23:38;3.83;;;2.10;;
47129;SDS011;64709;48.096;11.524;2022-11-20T08:26:03;2.50;;;2.10;;
47129;SDS011;64709;48.096;11.524;2022-11-20T08:28:29;2.45;;;1.88;;
47129;SDS011;64709;48.096;11.524;2022-11-20T08:30:58;5.47;;;2.60;;
47129;SDS011;64709;48.096;11.524;2022-11-20T08:33:24;3.83;;;2.03;;
47129;SDS011;64709;48.096;11.524;2022-11-20T08:35:50;4.47;;;2.70;;
47129;SDS011;64709;48.096;11.524;2022-11-20T08:38:15;4.15;;;2.70;;
47129;SDS011;64709;48.096;11.524;2022-11-20T08:40:40;1.95;;;1.60;;
47129;SDS011;64709;48.096;11.524;2022-11-20T08:43:06;2.45;;;1.77;;
47129;SDS011;64709;48.096;11.524;2022-11-20T08:45:31;3.35;;;2.13;;
47129;SDS011;64709;48.096;11.524;2022-11-20T08:47:59;2.30;;;1.90;;
47129;SDS011;64709;48.096;11.524;2022-11-20T08:50:25;3.70;;;1.98;;
47129;SDS011;64709;48.096;11.524;2022-11-20T08:52:51;2.88;;;1.80;;
47129;SDS011;64709;48.096;11.524;2022-11-20T08:55:16;4.10;;;1.92;;
47129;SDS011;64709;48.096;11.524;2022-11-20T08:57:41;3.35;;;2.13;;
47129;SDS011;64709;48.096;11.524;2022-11-20T09:00:07;2.85;;;1.95;;
47129;SDS011;64709;48.096;11.524;2022-11-20T09:02:33;2.78;;;1.70;;
47129;SDS011;64709;48.096;11.524;2022-11-20T09:04:58;2.78;;;1.67;;
47129;SDS011;64709;48.096;11.524;2022-11-20T09:07:24;2.60;;;1.58;;
47129;SDS011;64709;48.096;11.524;2022-11-20T09:09:49;2.30;;;1.52;;
47129;SDS011;64709;48.096;11.524;2022-11-20T09:12:14;2.20;;;1.73;;
47129;SDS011;64709;48.096;11.524;2022-11-20T09:14:40;2.55;;;1.65;;
47129;SDS011;64709;48.096;11.524;2022-11-20T09:17:05;5.03;;;1.77;;
47129;SDS011;64709;48.096;11.524;2022-11-20T09:19:32;2.78;;;1.52;;
47129;SDS011;64709;48.096;11.524;2022-11-20T09:21:58;2.10;;;1.90;;
47129;SDS011;64709;48.096;11.524;2022-11-20T09:24:24;2.75;;;1.60;;
47129;SDS011;64709;48.096;11.524;2022-11-20T09:26:50;2.95;;;2.08;;
47129;SDS011;64709;48.096;11.524;2022-11-20T09:29:16;3.28;;;1.67;;
47129;SDS011;64709;48.096;11.524;2022-11-20T09:31:41;12.05;;;6.43;;
47129;SDS011;64709;48.096;11.524;2022-11-20T09:34:06;9.95;;;4.85;;
47129;SDS011;64709;48.096;11.524;2022-11-20T09:36:32;5.95;;;3.10;;
47129;SDS011;64709;48.096;11.524;2022-11-20T09:38:57;2.13;;;1.63;;
47129;SDS011;64709;48.096;11.524;2022-11-20T09:43:58;1.58;;;1.48;;
47129;SDS011;64709;48.096;11.524;2022-11-20T09:46:49;1.65;;;1.25;;
47129;SDS011;64709;48.096;11.524;2022-11-20T09:55:18;4.13;;;2.50;;
47129;SDS011;64709;48.096;11.524;2022-11-20T09:57:44;4.15;;;2.10;;
47129;SDS011;64709;48.096;11.524;2022-11-20T10:00:13;4.47;;;2.50;;
47129;SDS011;64709;48.096;11.524;2022-11-20T10:07:51;1.50;;;1.20;;
47129;SDS011;64709;48.096;11.524;2022-11-20T10:10:28;3.03;;;1.50;;
47129;SDS011;64709;48.096;11.524;2022-11-20T10:15:43;3.83;;;1.90;;
47129;SDS011;64709;48.096;11.524;2022-11-20T10:21:55;1.40;;;1.10;;
47129;SDS011;64709;48.096;11.524;2022-11-20T10:24:47;2.03;;;1.80;;
47129;SDS011;64709;48.096;11.524;2022-11-20T10:27:30;2.22;;;1.55;;
47129;SDS011;64709;48.096;11.524;2022-11-20T10:32:41;2.95;;;1.67;;
47129;SDS011;64709;48.096;11.524;2022-11-20T10:35:21;2.20;;;1.08;;
47129;SDS011;64709;48.096;11.524;2022-11-20T10:38:02;1.85;;;1.40;;
47129;SDS011;64709;48.096;11.524;2022-11-20T10:43:08;2.28;;;1.20;;
47129;SDS011;64709;48.096;11.524;2022-11-20T10:45:46;1.75;;;1.00;;
47129;SDS011;64709;48.096;11.524;2022-11-20T10:48:23;1.27;;;1.00;;
47129;SDS011;64709;48.096;11.524;2022-11-20T10:53:56;2.13;;;1.33;;
47129;SDS011;64709;48.096;11.524;2022-11-20T10:59:28;1.92;;;1.20;;
47129;SDS011;64709;48.096;11.524;2022-11-20T11:02:16;2.00;;;1.17;;
47129;SDS011;64709;48.096;11.524;2022-11-20T11:04:51;1.30;;;1.13;;
47129;SDS011;64709;48.096;11.524;2022-11-20T11:07:26;2.72;;;1.30;;
47129;SDS011;64709;48.096;11.524;2022-11-20T11:09:56;2.00;;;1.23;;
47129;SDS011;64709;48.096;11.524;2022-11-20T11:12:23;1.10;;;1.00;;
47129;SDS011;64709;48.096;11.524;2022-11-20T11:14:52;2.58;;;1.23;;
47129;SDS011;64709;48.096;11.524;2022-11-20T11:17:32;2.88;;;1.30;;
47129;SDS011;64709;48.096;11.524;2022-11-20T11:22:42;5.05;;;2.72;;
47129;SDS011;64709;48.096;11.524;2022-11-20T11:25:24;3.47;;;1.80;;
47129;SDS011;64709;48.096;11.524;2022-11-20T11:27:52;3.17;;;1.50;;
47129;SDS011;64709;48.096;11.524;2022-11-20T11:30:21;1.92;;;1.17;;
47129;SDS011;64709;48.096;11.524;2022-11-20T11:32:47;1.63;;;1.20;;
47129;SDS011;64709;48.096;11.524;2022-11-20T11:35:23;2.30;;;1.40;;
47129;SDS011;64709;48.096;11.524;2022-11-20T11:37:52;1.70;;;1.30;;
47129;SDS011;64709;48.096;11.524;2022-11-20T11:40:26;2.47;;;1.38;;
47129;SDS011;64709;48.096;11.524;2022-11-20T11:42:59;6.20;;;3.53;;
47129;SDS011;64709;48.096;11.524;2022-11-20T11:45:27;3.17;;;1.60;;
47129;SDS011;64709;48.096;11.524;2022-11-20T11:47:54;4.75;;;2.13;;
47129;SDS011;64709;48.096;11.524;2022-11-20T11:50:26;6.13;;;3.83;;
47129;SDS011;64709;48.096;11.524;2022-11-20T11:55:38;2.55;;;1.30;;
47129;SDS011;64709;48.096;11.524;2022-11-20T11:58:20;5.30;;;3.30;;
47129;SDS011;64709;48.096;11.524;2022-11-20T12:01:12;3.88;;;2.17;;
47129;SDS011;64709;48.096;11.524;2022-11-20T12:04:14;2.17;;;1.40;;
47129;SDS011;64709;48.096;11.524;2022-11-20T12:06:39;10.30;;;5.50;;
47129;SDS011;64709;48.096;11.524;2022-11-20T12:09:10;4.70;;;1.95;;
47129;SDS011;64709;48.096;11.524;2022-11-20T12:12:10;1.88;;;1.42;;
47129;SDS011;64709;48.096;11.524;2022-11-20T12:14:37;2.03;;;1.23;;
47129;SDS011;64709;48.096;11.524;2022-11-20T12:17:04;1.48;;;1.27;;
47129;SDS011;64709;48.096;11.524;2022-11-20T12:19:30;1.83;;;1.30;;
47129;SDS011;64709;48.096;11.524;2022-11-20T12:30:32;2.60;;;1.30;;
47129;SDS011;64709;48.096;11.524;2022-11-20T13:01:48;3.10;;;1.77;;
47129;SDS011;64709;48.096;11.524;2022-11-20T13:07:09;2.88;;;1.73;;
47129;SDS011;64709;48.096;11.524;2022-11-20T13:09:39;2.63;;;1.67;;
47129;SDS011;64709;48.096;11.524;2022-11-20T13:15:02;1.95;;;1.20;;
47129;SDS011;64709;48.096;11.524;2022-11-20T13:20:16;2.22;;;1.65;;
47129;SDS011;64709;48.096;11.524;2022-11-20T13:27:57;2.47;;;1.75;;
47129;SDS011;64709;48.096;11.524;2022-11-20T13:30:24;4.22;;;1.75;;
47129;SDS011;64709;48.096;11.524;2022-11-20T13:38:26;2.42;;;1.65;;
47129;SDS011;64709;48.096;11.524;2022-11-20T13:40:54;2.45;;;1.40;;
47129;SDS011;64709;48.096;11.524;2022-11-20T13:46:06;2.80;;;1.80;;
47129;SDS011;64709;48.096;11.524;2022-11-20T13:48:43;2.05;;;1.60;;
47129;SDS011;64709;48.096;11.524;2022-11-20T13:51:12;2.10;;;1.65;;
47129;SDS011;64709;48.096;11.524;2022-11-20T13:54:04;2.55;;;1.70;;
47129;SDS011;64709;48.096;11.524;2022-11-20T13:56:49;2.13;;;1.73;;
47129;SDS011;64709;48.096;11.524;2022-11-20T14:02:13;2.50;;;1.58;;
47129;SDS011;64709;48.096;11.524;2022-11-20T14:04:42;3.00;;;1.83;;
47129;SDS011;64709;48.096;11.524;2022-11-20T14:07:11;3.55;;;1.70;;
47129;SDS011;64709;48.096;11.524;2022-11-20T14:09:37;4.00;;;1.73;;
47129;SDS011;64709;48.096;11.524;2022-11-20T14:12:03;2.97;;;1.90;;
47129;SDS011;64709;48.096;11.524;2022-11-20T14:14:46;2.72;;;1.63;;
47129;SDS011;64709;48.096;11.524;2022-11-20T14:19:53;1.98;;;1.42;;
47129;SDS011;64709;48.096;11.524;2022-11-20T14:22:23;3.35;;;1.80;;
47129;SDS011;64709;48.096;11.524;2022-11-20T14:27:37;2.05;;;1.40;;
47129;SDS011;64709;48.096;11.524;2022-11-20T14:30:06;2.70;;;1.58;;
47129;SDS011;64709;48.096;11.524;2022-11-20T14:32:39;2.05;;;1.55;;
47129;SDS011;64709;48.096;11.524;2022-11-20T14:35:09;1.90;;;1.50;;
47129;SDS011;64709;48.096;11.524;2022-11-20T14:37:39;1.75;;;1.27;;
47129;SDS011;64709;48.096;11.524;2022-11-20T14:40:21;1.98;;;1.30;;
47129;SDS011;64709;48.096;11.524;2022-11-20T14:42:47;1.58;;;1.17;;
47129;SDS011;64709;48.096;11.524;2022-11-20T14:45:13;2.80;;;1.38;;
47129;SDS011;64709;48.096;11.524;2022-11-20T14:47:39;1.80;;;1.20;;
47129;SDS011;64709;48.096;11.524;2022-11-20T14:50:08;1.50;;;0.98;;
47129;SDS011;64709;48.096;11.524;2022-11-20T14:52:49;1.20;;;1.10;;
47129;SDS011;64709;48.096;11.524;2022-11-20T14:55:28;1.30;;;0.90;;
47129;SDS011;64709;48.096;11.524;2022-11-20T14:57:55;2.60;;;1.45;;
47129;SDS011;64709;48.096;11.524;2022-11-20T15:00:21;2.85;;;1.10;;
47129;SDS011;64709;48.096;11.524;2022-11-20T15:02:48;2.45;;;1.05;;
47129;SDS011;64709;48.096;11.524;2022-11-20T15:05:15;1.92;;;1.10;;
47129;SDS011;64709;48.096;11.524;2022-11-20T15:07:44;2.28;;;1.00;;
47129;SDS011;64709;48.096;11.524;2022-11-20T15:10:13;2.30;;;1.30;;
47129;SDS011;64709;48.096;11.524;2022-11-20T15:12:52;3.53;;;1.30;;
47129;SDS011;64709;48.096;11.524;2022-11-20T15:15:25;2.08;;;0.98;;
47129;SDS011;64709;48.096;11.524;2022-11-20T15:17:54;1.42;;;1.02;;
47129;SDS011;64709;48.096;11.524;2022-11-20T15:20:20;2.95;;;1.00;;
47129;SDS011;64709;48.096;11.524;2022-11-20T15:22:48;2.65;;;1.45;;
47129;SDS011;64709;48.096;11.524;2022-11-20T15:25:15;1.17;;;1.00;;
47129;SDS011;64709;48.096;11.524;2022-11-20T15:27:41;0.93;;;0.90;;
47129;SDS011;64709;48.096;11.524;2022-11-20T15:30:15;1.90;;;1.02;;
47129;SDS011;64709;48.096;11.524;2022-11-20T15:32:42;6.00;;;2.95;;
47129;SDS011;64709;48.096;11.524;2022-11-20T15:35:08;5.68;;;2.25;;
47129;SDS011;64709;48.096;11.524;2022-11-20T15:37:35;2.60;;;1.55;;
47129;SDS011;64709;48.096;11.524;2022-11-20T15:40:00;1.65;;;1.10;;
47129;SDS011;64709;48.096;11.524;2022-11-20T15:42:26;6.03;;;3.22;;
47129;SDS011;64709;48.096;11.524;2022-11-20T15:44:51;8.82;;;4.95;;
47129;SDS011;64709;48.096;11.524;2022-11-20T15:47:16;7.35;;;3.65;;
47129;SDS011;64709;48.096;11.524;2022-11-20T15:49:42;6.93;;;4.03;;
47129;SDS011;64709;48.096;11.524;2022-11-20T15:52:08;10.32;;;5.57;;
47129;SDS011;64709;48.096;11.524;2022-11-20T15:54:34;3.20;;;1.77;;
47129;SDS011;64709;48.096;11.524;2022-11-20T15:57:00;10.80;;;4.63;;
47129;SDS011;64709;48.096;11.524;2022-11-20T15:59:27;7.20;;;3.40;;
47129;SDS011;64709;48.096;11.524;2022-11-20T16:01:52;5.20;;;2.35;;
47129;SDS011;64709;48.096;11.524;2022-11-20T16:04:17;4.07;;;2.08;;
47129;SDS011;64709;48.096;11.524;2022-11-20T16:06:43;2.35;;;1.35;;
47129;SDS011;64709;48.096;11.524;2022-11-20T16:09:08;2.83;;;1.45;;
47129;SDS011;64709;48.096;11.524;2022-11-20T16:11:35;2.53;;;1.45;;
47129;SDS011;64709;48.096;11.524;2022-11-20T16:14:01;6.43;;;3.40;;
47129;SDS011;64709;48.096;11.524;2022-11-20T16:16:46;7.00;;;3.75;;
47129;SDS011;64709;48.096;11.524;2022-11-20T16:19:14;5.55;;;2.50;;
47129;SDS011;64709;48.096;11.524;2022-11-20T16:21:40;4.20;;;2.53;;
47129;SDS011;64709;48.096;11.524;2022-11-20T16:24:07;8.35;;;4.80;;
47129;SDS011;64709;48.096;11.524;2022-11-20T16:26:34;8.35;;;4.95;;
47129;SDS011;64709;48.096;11.524;2022-11-20T16:29:01;12.88;;;7.20;;
47129;SDS011;64709;48.096;11.524;2022-11-20T16:31:28;5.00;;;3.17;;
47129;SDS011;64709;48.096;11.524;2022-11-20T16:33:55;2.47;;;1.75;;